createdAt,value
2019-03-28T00:02:23.753Z,2.21
2019-03-28T00:04:52.260Z,2.06
2019-03-28T00:07:23.888Z,2.03
2019-03-28T00:09:50.894Z,2.12
2019-03-28T00:12:19.316Z,2.18
2019-03-28T00:14:47.782Z,2.13
2019-03-28T00:17:16.281Z,2.03
2019-03-28T00:19:44.720Z,1.99
2019-03-28T00:22:14.956Z,1.99
2019-03-28T00:24:45.048Z,1.96
2019-03-28T00:27:13.482Z,2.00
2019-03-28T00:29:41.959Z,1.91
2019-03-28T00:32:10.390Z,1.87
2019-03-28T00:34:38.820Z,1.89
2019-03-28T00:37:07.820Z,1.85
2019-03-28T00:39:36.676Z,1.88
2019-03-28T00:42:05.104Z,1.82
2019-03-28T00:44:33.573Z,1.90
2019-03-28T00:47:02.025Z,1.87
2019-03-28T00:49:30.456Z,1.81
2019-03-28T00:51:59.057Z,1.61
2019-03-28T00:54:27.556Z,1.62
2019-03-28T00:56:55.990Z,1.37
2019-03-28T00:59:24.485Z,1.66
2019-03-28T01:01:52.880Z,1.56
2019-03-28T01:04:21.381Z,1.45
2019-03-28T01:06:49.933Z,1.47
2019-03-28T01:09:18.362Z,1.52
2019-03-28T01:11:46.793Z,1.46
2019-03-28T01:14:15.256Z,1.52
2019-03-28T01:16:43.686Z,1.27
2019-03-28T01:19:12.119Z,1.31
2019-03-28T01:21:41.199Z,1.37
2019-03-28T01:24:09.878Z,1.32
2019-03-28T01:26:38.312Z,1.41
2019-03-28T01:29:06.849Z,1.53
2019-03-28T01:31:35.274Z,1.58
2019-03-28T01:34:03.774Z,1.57
2019-03-28T01:36:32.650Z,1.53
2019-03-28T01:39:01.077Z,1.58
2019-03-28T01:41:29.522Z,1.37
2019-03-28T01:43:58.412Z,1.44
2019-03-28T01:46:26.843Z,1.41
2019-03-28T01:48:55.271Z,1.34
2019-03-28T01:51:23.736Z,1.45
2019-03-28T01:53:52.173Z,1.29
2019-03-28T01:56:20.600Z,1.59
2019-03-28T01:58:49.063Z,1.31
2019-03-28T02:01:17.565Z,1.31
2019-03-28T02:03:45.998Z,1.22
2019-03-28T02:06:14.469Z,1.25
2019-03-28T02:08:42.902Z,1.31
2019-03-28T02:11:11.332Z,1.38
2019-03-28T02:13:40.281Z,1.35
2019-03-28T02:16:08.712Z,1.46
2019-03-28T02:18:37.154Z,1.38
2019-03-28T02:21:05.691Z,1.36
2019-03-28T02:23:34.123Z,1.30
2019-03-28T02:26:02.559Z,1.27
2019-03-28T02:28:31.172Z,1.26
2019-03-28T02:30:59.598Z,1.28
2019-03-28T02:33:28.029Z,1.17
2019-03-28T02:35:56.493Z,1.21
2019-03-28T02:38:24.930Z,1.19
2019-03-28T02:40:53.363Z,1.16
2019-03-28T02:43:21.822Z,1.19
2019-03-28T02:45:50.249Z,1.07
2019-03-28T02:48:18.687Z,1.17
2019-03-28T02:50:47.358Z,1.22
2019-03-28T02:53:15.785Z,1.26
2019-03-28T02:55:44.292Z,1.26
2019-03-28T02:58:12.840Z,1.13
2019-03-28T03:00:41.261Z,0.93
2019-03-28T03:03:09.686Z,1.05
2019-03-28T03:05:38.145Z,0.92
2019-03-28T03:08:07.717Z,0.90
2019-03-28T03:10:36.628Z,0.87
2019-03-28T03:13:05.192Z,0.94
2019-03-28T03:15:36.690Z,0.98
2019-03-28T03:18:05.123Z,0.95
2019-03-28T03:20:33.578Z,0.99
2019-03-28T03:23:02.024Z,0.95
2019-03-28T03:25:30.457Z,0.85
2019-03-28T03:27:59.480Z,0.76
2019-03-28T03:30:28.017Z,0.83
2019-03-28T03:32:56.448Z,0.96
2019-03-28T03:35:24.912Z,1.02
2019-03-28T03:37:53.342Z,1.02
2019-03-28T03:40:21.770Z,0.75
2019-03-28T03:42:50.314Z,0.73
2019-03-28T03:45:18.744Z,0.68
2019-03-28T03:47:47.196Z,0.74
2019-03-28T03:50:26.831Z,0.76
2019-03-28T03:52:55.265Z,0.64
2019-03-28T03:55:23.764Z,0.45
2019-03-28T03:57:52.229Z,0.62
2019-03-28T04:00:32.206Z,0.46
2019-03-28T04:03:02.887Z,0.50
2019-03-28T04:05:31.659Z,0.37
2019-03-28T04:08:00.384Z,0.43
2019-03-28T04:10:29.016Z,0.46
2019-03-28T04:12:57.531Z,0.37
2019-03-28T04:15:26.019Z,0.31
2019-03-28T04:17:54.563Z,0.40
2019-03-28T04:20:22.995Z,0.38
2019-03-28T04:22:51.504Z,0.45
2019-03-28T04:25:20.293Z,0.37
2019-03-28T04:27:48.724Z,0.34
2019-03-28T04:30:17.221Z,0.35
2019-03-28T04:32:46.752Z,0.23
2019-03-28T04:35:15.368Z,0.25
2019-03-28T04:37:43.792Z,0.39
2019-03-28T04:40:12.334Z,0.39
2019-03-28T04:42:40.783Z,0.48
2019-03-28T04:45:09.381Z,0.59
2019-03-28T04:47:38.180Z,0.55
2019-03-28T04:50:07.824Z,0.51
2019-03-28T04:52:36.255Z,0.37
2019-03-28T04:55:06.369Z,0.40
2019-03-28T04:57:34.887Z,0.31
2019-03-28T05:00:03.632Z,0.35
2019-03-28T05:02:32.102Z,0.29
2019-03-28T05:05:00.535Z,0.32
2019-03-28T05:07:28.965Z,0.42
2019-03-28T05:09:57.438Z,0.44
2019-03-28T05:12:25.867Z,0.53
2019-03-28T05:14:54.304Z,0.34
2019-03-28T05:17:22.761Z,0.37
2019-03-28T05:19:51.466Z,0.41
2019-03-28T05:22:19.896Z,0.49
2019-03-28T05:24:48.449Z,0.53
2019-03-28T05:27:16.876Z,0.65
2019-03-28T05:29:45.307Z,0.71
2019-03-28T05:32:13.774Z,0.63
2019-03-28T05:34:42.221Z,0.56
2019-03-28T05:37:10.674Z,0.52
2019-03-28T05:39:39.123Z,0.54
2019-03-28T05:42:07.551Z,0.61
2019-03-28T05:44:35.981Z,0.57
2019-03-28T05:47:04.449Z,0.71
2019-03-28T05:49:32.879Z,0.68
2019-03-28T05:52:01.303Z,0.96
2019-03-28T05:54:29.761Z,0.74
2019-03-28T05:56:58.193Z,0.77
2019-03-28T05:59:26.626Z,0.88
2019-03-28T06:01:55.167Z,0.84
2019-03-28T06:04:23.597Z,1.05
2019-03-28T06:06:52.036Z,1.25
2019-03-28T06:09:20.506Z,1.24
2019-03-28T06:11:48.959Z,1.56
2019-03-28T06:14:17.389Z,1.62
2019-03-28T06:16:45.934Z,1.81
2019-03-28T06:19:14.366Z,1.74
2019-03-28T06:21:42.803Z,1.86
2019-03-28T06:24:11.384Z,1.93
2019-03-28T06:26:39.817Z,1.66
2019-03-28T06:29:08.711Z,1.60
2019-03-28T06:31:37.429Z,1.66
2019-03-28T06:34:05.876Z,1.65
2019-03-28T06:36:34.307Z,1.66
2019-03-28T06:39:03.032Z,1.65
2019-03-28T06:41:31.470Z,1.87
2019-03-28T06:43:59.900Z,1.83
2019-03-28T06:46:28.363Z,1.79
2019-03-28T06:48:56.822Z,1.90
2019-03-28T06:51:25.414Z,1.92
2019-03-28T06:53:56.983Z,1.89
2019-03-28T06:56:25.431Z,1.97
2019-03-28T06:58:54.137Z,1.98
2019-03-28T07:01:22.681Z,2.08
2019-03-28T07:03:51.181Z,2.09
2019-03-28T07:06:19.619Z,2.10
2019-03-28T07:08:48.090Z,2.11
2019-03-28T07:11:16.520Z,2.21
2019-03-28T07:13:44.952Z,2.25
2019-03-28T07:16:13.488Z,2.31
2019-03-28T07:18:41.922Z,2.47
2019-03-28T07:21:10.353Z,2.58
2019-03-28T07:23:38.832Z,2.76
2019-03-28T07:26:07.401Z,2.82
2019-03-28T07:28:35.835Z,2.94
2019-03-28T07:31:04.657Z,3.13
2019-03-28T07:33:33.089Z,3.33
2019-03-28T07:36:01.522Z,3.53
2019-03-28T07:38:30.001Z,3.58
2019-03-28T07:40:58.442Z,3.65
2019-03-28T07:43:26.875Z,3.69
2019-03-28T07:45:55.454Z,3.85
2019-03-28T07:48:23.890Z,4.14
2019-03-28T07:50:52.320Z,4.22
2019-03-28T07:53:21.592Z,4.47
2019-03-28T07:55:50.218Z,4.54
2019-03-28T07:58:18.646Z,4.53
2019-03-28T08:00:47.256Z,4.64
2019-03-28T08:03:15.688Z,4.75
2019-03-28T08:05:44.123Z,4.95
2019-03-28T08:08:12.706Z,5.13
2019-03-28T08:10:41.144Z,5.24
2019-03-28T08:13:09.577Z,5.32
2019-03-28T08:15:38.125Z,5.24
2019-03-28T08:18:06.793Z,5.55
2019-03-28T08:20:35.493Z,5.53
2019-03-28T08:23:04.309Z,5.60
2019-03-28T08:25:34.414Z,5.82
2019-03-28T08:28:02.756Z,5.98
2019-03-28T08:30:38.417Z,6.07
2019-03-28T08:33:07.711Z,6.21
2019-03-28T08:35:39.154Z,6.84
2019-03-28T08:38:09.882Z,6.91
2019-03-28T08:40:40.717Z,6.78
2019-03-28T08:43:09.386Z,7.15
2019-03-28T08:45:37.937Z,7.25
2019-03-28T08:48:06.689Z,7.63
2019-03-28T08:50:35.289Z,7.43
2019-03-28T08:53:04.110Z,7.67
2019-03-28T08:55:32.543Z,7.73
2019-03-28T08:58:00.983Z,8.03
2019-03-28T09:00:35.036Z,8.15
2019-03-28T09:02:59.660Z,8.34
2019-03-28T09:05:28.089Z,8.36
2019-03-28T09:07:56.615Z,8.80
2019-03-28T09:10:25.045Z,8.89
2019-03-28T09:12:53.568Z,8.66
2019-03-28T09:15:22.383Z,8.94
2019-03-28T09:17:50.814Z,9.21
2019-03-28T09:20:19.250Z,9.61
2019-03-28T09:22:48.135Z,9.84
2019-03-28T09:25:16.638Z,9.84
2019-03-28T09:27:45.068Z,9.96
2019-03-28T09:30:14.364Z,9.74
2019-03-28T09:32:42.938Z,10.08
2019-03-28T09:35:13.259Z,9.89
2019-03-28T09:37:41.714Z,10.22
2019-03-28T09:40:10.513Z,10.30
2019-03-28T09:42:38.945Z,10.36
2019-03-28T09:45:08.238Z,10.89
2019-03-28T09:47:36.660Z,11.22
2019-03-28T09:50:06.837Z,11.51
2019-03-28T09:52:35.299Z,11.21
2019-03-28T09:55:04.598Z,11.43
2019-03-28T09:57:33.034Z,11.41
2019-03-28T10:00:01.494Z,11.58
2019-03-28T10:02:29.999Z,11.69
2019-03-28T10:04:58.434Z,12.27
2019-03-28T10:07:27.001Z,12.30
2019-03-28T10:09:55.888Z,11.99
2019-03-28T10:12:24.534Z,11.88
2019-03-28T10:14:53.103Z,11.97
2019-03-28T10:17:21.912Z,12.14
2019-03-28T10:19:50.348Z,12.19
2019-03-28T10:22:18.823Z,11.99
2019-03-28T10:24:47.259Z,12.15
2019-03-28T10:27:18.950Z,12.09
2019-03-28T10:29:46.039Z,12.18
2019-03-28T10:32:14.467Z,12.25
2019-03-28T10:34:42.901Z,12.39
2019-03-28T10:37:11.368Z,12.59
2019-03-28T10:39:39.800Z,12.50
2019-03-28T10:42:08.236Z,12.36
2019-03-28T10:44:37.145Z,12.46
2019-03-28T10:47:05.757Z,12.66
2019-03-28T10:49:34.256Z,12.74
2019-03-28T10:52:04.138Z,13.11
2019-03-28T10:54:32.693Z,13.01
2019-03-28T10:57:13.080Z,13.13
2019-03-28T10:59:31.328Z,13.16
2019-03-28T11:01:59.771Z,12.85
2019-03-28T11:04:28.208Z,13.40
2019-03-28T11:06:57.183Z,13.41
2019-03-28T11:09:25.668Z,13.25
2019-03-28T11:11:54.169Z,13.30
2019-03-28T11:14:22.632Z,13.24
2019-03-28T11:16:51.074Z,13.27
2019-03-28T11:19:19.523Z,13.33
2019-03-28T11:21:48.232Z,13.40
2019-03-28T11:24:16.738Z,13.38
2019-03-28T11:26:45.198Z,13.41
2019-03-28T11:29:13.754Z,13.64
2019-03-28T11:31:46.848Z,13.34
2019-03-28T11:34:12.347Z,13.47
2019-03-28T11:36:40.805Z,13.29
2019-03-28T11:39:09.413Z,13.74
2019-03-28T11:41:37.865Z,13.94
2019-03-28T11:44:06.328Z,14.09
2019-03-28T11:46:34.756Z,13.61
2019-03-28T11:49:03.191Z,13.67
2019-03-28T11:51:31.673Z,13.71
2019-03-28T11:54:00.106Z,13.71
2019-03-28T11:56:28.551Z,13.82
2019-03-28T11:58:57.023Z,13.88
2019-03-28T12:01:25.455Z,14.00
2019-03-28T12:03:53.888Z,14.13
2019-03-28T12:06:22.372Z,14.35
2019-03-28T12:08:50.812Z,14.59
2019-03-28T12:11:19.259Z,14.48
2019-03-28T12:13:47.724Z,14.46
2019-03-28T12:16:16.988Z,14.50
2019-03-28T12:18:45.575Z,14.63
2019-03-28T12:21:14.038Z,14.50
2019-03-28T12:23:42.464Z,14.37
2019-03-28T12:26:10.910Z,14.31
2019-03-28T12:28:39.697Z,14.59
2019-03-28T12:31:08.190Z,14.80
2019-03-28T12:33:36.626Z,14.89
2019-03-28T12:36:05.167Z,14.72
2019-03-28T12:38:33.611Z,14.86
2019-03-28T12:41:02.124Z,14.66
2019-03-28T12:43:30.601Z,14.29
2019-03-28T12:45:59.034Z,14.13
2019-03-28T12:48:27.471Z,13.92
2019-03-28T12:50:58.958Z,13.83
2019-03-28T12:53:26.093Z,14.12
2019-03-28T12:55:54.603Z,14.27
2019-03-28T12:58:23.065Z,14.40
2019-03-28T13:00:51.571Z,14.43
2019-03-28T13:03:20.076Z,14.33
2019-03-28T13:05:48.546Z,14.26
2019-03-28T13:08:17.794Z,14.27
2019-03-28T13:10:46.534Z,14.69
2019-03-28T13:13:14.998Z,14.39
2019-03-28T13:15:43.823Z,14.84
2019-03-28T13:18:12.337Z,14.83
2019-03-28T13:20:40.804Z,14.62
2019-03-28T13:23:09.233Z,14.76
2019-03-28T13:25:37.664Z,14.69
2019-03-28T13:28:06.201Z,14.83
2019-03-28T13:30:34.721Z,15.03
2019-03-28T13:33:03.166Z,14.95
2019-03-28T13:35:34.922Z,15.27
2019-03-28T13:38:01.910Z,15.35
2019-03-28T13:40:30.346Z,15.42
2019-03-28T13:42:59.860Z,15.43
2019-03-28T13:45:28.303Z,15.55
2019-03-28T13:47:56.731Z,15.35
2019-03-28T13:50:25.542Z,15.07
2019-03-28T13:52:54.008Z,14.79
2019-03-28T13:55:22.415Z,14.68
2019-03-28T13:57:52.351Z,14.48
2019-03-28T14:00:23.965Z,14.51
2019-03-28T14:02:58.483Z,14.43
2019-03-28T14:05:22.646Z,14.67
2019-03-28T14:07:51.076Z,15.00
2019-03-28T14:10:21.774Z,14.88
2019-03-28T14:12:49.771Z,14.90
2019-03-28T14:15:18.272Z,15.20
2019-03-28T14:17:46.687Z,15.12
2019-03-28T14:20:55.411Z,15.01
2019-03-28T14:23:23.842Z,15.35
2019-03-28T14:25:52.270Z,15.40
2019-03-28T14:30:55.088Z,15.10
2019-03-28T14:33:23.545Z,15.25
2019-03-28T14:35:52.000Z,15.29
2019-03-28T14:38:20.423Z,15.20
2019-03-28T14:40:48.888Z,15.04
2019-03-28T14:43:17.310Z,14.96
2019-03-28T14:45:45.745Z,14.97
2019-03-28T14:48:14.195Z,15.20
2019-03-28T14:51:22.541Z,15.07
2019-03-28T14:53:50.992Z,15.29
2019-03-28T15:00:07.423Z,15.53
2019-03-28T15:02:35.858Z,15.44
2019-03-28T15:05:44.383Z,15.21
2019-03-28T15:08:32.135Z,14.94
2019-03-28T15:11:19.780Z,14.76
2019-03-28T15:13:48.214Z,14.60
2019-03-28T15:16:16.650Z,14.56
2019-03-28T15:21:19.133Z,14.74
2019-03-28T15:24:06.908Z,14.91
2019-03-28T15:26:35.357Z,14.99
2019-03-28T15:29:03.836Z,15.09
2019-03-28T15:31:32.288Z,15.27
2019-03-28T15:34:00.719Z,15.22
2019-03-28T15:36:29.143Z,15.10
2019-03-28T15:38:57.602Z,14.94
2019-03-28T15:41:26.034Z,14.98
2019-03-28T15:43:54.460Z,14.65
2019-03-28T15:46:22.922Z,14.75
2019-03-28T15:48:51.348Z,14.71
2019-03-28T15:51:19.778Z,14.57
2019-03-28T15:53:48.258Z,14.64
2019-03-28T15:56:16.655Z,14.67
2019-03-28T15:58:45.080Z,14.57
2019-03-28T16:01:33.610Z,14.69
2019-03-28T16:04:03.048Z,14.51
2019-03-28T16:06:31.477Z,14.43
2019-03-28T16:11:33.860Z,14.43
2019-03-28T16:14:02.293Z,14.30
2019-03-28T16:16:30.747Z,14.33
2019-03-28T16:19:01.628Z,14.20
2019-03-28T16:21:29.324Z,14.23
2019-03-28T16:23:57.862Z,14.20
2019-03-28T16:26:26.287Z,14.21
2019-03-28T16:28:56.453Z,14.17
2019-03-28T16:31:25.771Z,14.08
2019-03-28T16:34:06.111Z,14.00
2019-03-28T16:36:44.429Z,13.97
2019-03-28T16:39:12.851Z,13.94
2019-03-28T16:42:00.425Z,13.89
2019-03-28T16:44:28.856Z,13.97
2019-03-28T16:46:57.293Z,13.98
2019-03-28T16:49:45.017Z,13.98
2019-03-28T16:52:13.449Z,14.08
2019-03-28T16:54:41.883Z,13.99
2019-03-28T16:57:10.332Z,13.97
2019-03-28T16:59:38.764Z,13.92
2019-03-28T17:05:00.401Z,13.91
2019-03-28T17:10:45.669Z,13.80
2019-03-28T17:13:54.048Z,13.70
2019-03-28T17:16:22.523Z,13.72
2019-03-28T17:18:50.954Z,13.77
2019-03-28T17:21:19.383Z,13.67
2019-03-28T17:24:07.027Z,13.68
2019-03-28T17:26:35.457Z,13.63
2019-03-28T17:29:23.231Z,13.69
2019-03-28T17:31:51.654Z,13.64
2019-03-28T17:34:33.756Z,13.63
2019-03-28T17:36:50.266Z,13.49
2019-03-28T17:39:37.894Z,13.35
2019-03-28T17:42:06.451Z,13.25
2019-03-28T17:44:34.870Z,13.01
2019-03-28T17:47:03.380Z,12.93
2019-03-28T17:52:25.431Z,12.83
2019-03-28T17:55:13.217Z,12.80
2019-03-28T17:57:41.649Z,12.92
2019-03-28T18:00:50.025Z,12.70
2019-03-28T18:03:30.516Z,12.65
2019-03-28T18:06:08.694Z,12.55
2019-03-28T18:08:38.115Z,12.69
2019-03-28T18:11:06.544Z,12.65
2019-03-28T18:13:35.007Z,12.59
2019-03-28T18:16:03.421Z,12.57
2019-03-28T18:18:31.847Z,12.48
2019-03-28T18:21:00.404Z,12.51
2019-03-28T18:23:48.139Z,12.58
2019-03-28T18:26:16.603Z,12.66
2019-03-28T18:28:45.040Z,12.43
2019-03-28T18:31:13.456Z,12.23
2019-03-28T18:33:41.918Z,12.06
2019-03-28T18:36:10.359Z,12.12
2019-03-28T18:38:38.784Z,11.87
2019-03-28T18:41:47.158Z,11.99
2019-03-28T18:44:34.771Z,11.97
2019-03-28T18:47:03.244Z,11.67
2019-03-28T18:49:31.676Z,11.60
2019-03-28T18:52:00.106Z,11.43
2019-03-28T18:54:28.561Z,11.48
2019-03-28T18:57:19.518Z,11.31
2019-03-28T18:59:46.491Z,11.15
2019-03-28T19:02:14.928Z,11.14
2019-03-28T19:04:43.353Z,10.96
2019-03-28T19:07:11.805Z,11.00
2019-03-28T19:09:40.231Z,10.88
2019-03-28T19:12:08.660Z,10.78
2019-03-28T19:14:37.118Z,10.85
2019-03-28T19:17:05.621Z,10.78
2019-03-28T19:19:39.610Z,10.87
2019-03-28T19:22:23.903Z,10.79
2019-03-28T19:24:53.808Z,10.71
2019-03-28T19:27:22.238Z,10.73
2019-03-28T19:29:50.701Z,10.68
2019-03-28T19:32:19.135Z,10.74
2019-03-28T19:35:06.778Z,10.69
2019-03-28T19:38:15.131Z,10.72
2019-03-28T19:43:20.995Z,10.81
2019-03-28T19:46:07.441Z,10.75
2019-03-28T19:48:35.872Z,10.58
2019-03-28T19:51:23.668Z,10.62
2019-03-28T19:53:52.109Z,10.54
2019-03-28T19:56:21.001Z,10.69
2019-03-28T20:01:25.117Z,10.81
2019-03-28T20:03:55.083Z,10.83
2019-03-28T20:06:43.126Z,10.73
2019-03-28T20:11:45.520Z,10.75
2019-03-28T20:16:48.671Z,10.60
2019-03-28T20:19:17.949Z,10.70
2019-03-28T20:21:47.339Z,10.56
2019-03-28T20:24:15.763Z,10.68
2019-03-28T20:26:44.230Z,10.89
2019-03-28T20:29:12.656Z,11.02
2019-03-28T20:31:41.076Z,11.16
2019-03-28T20:34:09.532Z,11.26
2019-03-28T20:36:42.131Z,11.56
2019-03-28T20:39:48.144Z,11.41
2019-03-28T20:42:16.571Z,11.31
2019-03-28T20:44:45.048Z,11.21
2019-03-28T20:49:47.491Z,11.08
2019-03-28T20:52:15.936Z,10.91
2019-03-28T20:54:44.360Z,10.81
2019-03-28T20:57:12.789Z,10.91
2019-03-28T20:59:41.248Z,10.94
2019-03-28T21:02:28.931Z,10.87
2019-03-28T21:11:06.223Z,10.74
2019-03-28T21:13:35.353Z,10.79
2019-03-28T21:16:04.822Z,10.72
2019-03-28T21:18:33.254Z,10.68
2019-03-28T21:21:02.805Z,10.59
2019-03-28T21:23:51.193Z,10.49
2019-03-28T21:29:12.594Z,10.34
2019-03-28T21:31:49.692Z,10.32
2019-03-28T21:34:11.356Z,10.34
2019-03-28T21:37:00.576Z,10.38
2019-03-28T21:39:29.057Z,10.37
2019-03-28T21:41:57.495Z,10.40
2019-03-28T21:44:25.916Z,10.30
2019-03-28T21:46:54.374Z,10.22
2019-03-28T21:49:22.803Z,10.21
2019-03-28T21:51:51.246Z,10.10
2019-03-28T21:54:19.724Z,10.09
2019-03-28T21:56:48.157Z,10.03
2019-03-28T22:02:10.492Z,9.91
2019-03-28T22:04:38.915Z,9.88
2019-03-28T22:07:07.404Z,9.82
2019-03-28T22:09:35.856Z,9.76
2019-03-28T22:14:59.050Z,9.66
2019-03-28T22:17:27.477Z,9.54
2019-03-28T22:19:55.904Z,9.53
2019-03-28T22:24:57.954Z,9.48
2019-03-28T22:27:26.380Z,9.44
2019-03-28T22:30:14.106Z,9.38
2019-03-28T22:32:42.526Z,9.34
2019-03-28T22:35:51.199Z,9.32
2019-03-28T22:38:21.192Z,9.31
2019-03-28T22:40:51.280Z,9.23
2019-03-28T22:45:54.083Z,9.15
2019-03-28T22:50:56.830Z,9.02
2019-03-28T22:53:25.290Z,9.11
2019-03-28T22:55:53.715Z,9.12
2019-03-28T22:58:41.492Z,9.06
2019-03-28T23:01:49.846Z,9.03
2019-03-28T23:04:58.542Z,8.98
2019-03-28T23:07:46.169Z,8.99
2019-03-28T23:10:54.545Z,9.06
2019-03-28T23:13:22.973Z,9.05
2019-03-28T23:15:51.408Z,9.00
2019-03-28T23:20:54.166Z,9.00
2019-03-28T23:23:22.620Z,9.04
2019-03-28T23:26:10.233Z,9.00
2019-03-28T23:28:38.708Z,8.99
2019-03-28T23:31:07.138Z,9.05
2019-03-28T23:33:35.580Z,9.12
2019-03-28T23:36:04.104Z,9.04
2019-03-28T23:38:32.524Z,9.15
2019-03-28T23:41:00.962Z,9.17
2019-03-28T23:43:29.412Z,9.14
2019-03-28T23:45:57.837Z,9.06
2019-03-28T23:48:26.265Z,9.07
2019-03-28T23:50:54.717Z,9.12
2019-03-28T23:53:23.147Z,9.12
2019-03-28T23:55:51.567Z,9.11
2019-03-28T23:58:20.938Z,9.09
